createdAt,value
2023-05-02T00:03:11.741Z,101996.16
2023-05-02T00:08:13.433Z,101992.81
2023-05-02T00:13:14.971Z,101998.97
2023-05-02T00:18:16.725Z,102007.13
2023-05-02T00:23:18.261Z,102024.06
2023-05-02T00:28:19.739Z,102013.16
2023-05-02T00:33:21.197Z,102023.22
2023-05-02T00:38:22.671Z,102030.53
2023-05-02T00:43:24.430Z,102034.69
2023-05-02T00:48:26.326Z,102031.81
2023-05-02T00:53:27.785Z,102021.19
2023-05-02T00:58:30.727Z,102041.28
2023-05-02T01:04:02.338Z,102034.09
2023-05-02T01:09:37.908Z,102046.97
2023-05-02T01:14:44.043Z,102047.84
2023-05-02T01:19:53.028Z,102053.91
2023-05-02T01:24:54.449Z,102061.34
2023-05-02T01:29:59.342Z,102051.75
2023-05-02T01:35:02.339Z,102055.88
2023-05-02T01:40:05.463Z,102053.31
2023-05-02T01:45:08.720Z,102063.47
2023-05-02T01:50:16.816Z,102070.63
2023-05-02T01:55:18.883Z,102082.81
2023-05-02T02:00:21.939Z,102093.56
2023-05-02T02:05:25.504Z,102100.75
2023-05-02T02:10:31.842Z,102116.81
2023-05-02T02:15:39.898Z,102122.59
2023-05-02T02:20:44.913Z,102126.03
2023-05-02T02:25:47.033Z,102143.09
2023-05-02T02:30:48.618Z,102140.22
2023-05-02T02:36:13.303Z,102140.06
2023-05-02T02:41:23.492Z,102149.00
2023-05-02T02:46:33.990Z,102159.31
2023-05-02T02:51:41.582Z,102161.16
2023-05-02T02:56:46.771Z,102172.13
2023-05-02T03:01:55.581Z,102176.72
2023-05-02T03:06:57.133Z,102177.25
2023-05-02T03:11:58.648Z,102186.91
2023-05-02T03:17:00.174Z,102194.06
2023-05-02T03:22:01.696Z,102210.56
2023-05-02T03:27:03.267Z,102229.13
2023-05-02T03:32:05.526Z,102230.63
2023-05-02T03:37:07.124Z,102232.22
2023-05-02T03:42:08.660Z,102245.25
2023-05-02T03:47:10.202Z,102245.13
2023-05-02T03:52:11.768Z,102244.66
2023-05-02T03:57:13.336Z,102262.22
2023-05-02T04:02:15.456Z,102265.69
2023-05-02T04:07:19.344Z,102281.25
2023-05-02T04:12:21.277Z,102272.84
2023-05-02T04:17:22.804Z,102279.28
2023-05-02T04:22:24.280Z,102289.56
2023-05-02T04:27:26.118Z,102293.91
2023-05-02T04:32:27.876Z,102288.34
2023-05-02T04:37:29.416Z,102309.47
2023-05-02T04:42:30.977Z,102312.72
2023-05-02T04:47:32.571Z,102320.66
2023-05-02T04:52:34.132Z,102329.44
2023-05-02T04:57:35.840Z,102348.38
2023-05-02T05:02:39.009Z,102352.81
2023-05-02T05:07:40.992Z,102362.13
2023-05-02T05:12:42.555Z,102371.13
2023-05-02T05:17:44.277Z,102366.81
2023-05-02T05:22:45.790Z,102372.34
2023-05-02T05:27:47.295Z,102383.88
2023-05-02T05:32:48.866Z,102386.72
2023-05-02T05:37:50.442Z,102396.13
2023-05-02T05:42:52.321Z,102407.69
2023-05-02T05:47:54.997Z,102407.50
2023-05-02T05:52:56.569Z,102414.75
2023-05-02T05:57:58.154Z,102423.97
2023-05-02T06:02:59.728Z,102442.41
2023-05-02T06:08:02.808Z,102450.03
2023-05-02T06:13:04.525Z,102453.88
2023-05-02T06:18:06.147Z,102464.00
2023-05-02T06:23:07.752Z,102459.59
2023-05-02T06:28:09.541Z,102473.03
2023-05-02T06:33:12.308Z,102483.06
2023-05-02T06:38:13.874Z,102487.03
2023-05-02T06:43:16.032Z,102496.84
2023-05-02T06:48:17.809Z,102507.75
2023-05-02T06:53:19.391Z,102515.78
2023-05-02T06:58:20.887Z,102521.63
2023-05-02T07:03:22.472Z,102526.22
2023-05-02T07:08:24.077Z,102522.63
2023-05-02T07:13:25.809Z,102535.78
2023-05-02T07:18:27.263Z,102545.44
2023-05-02T07:23:28.856Z,102555.75
2023-05-02T07:28:30.522Z,102558.22
2023-05-02T07:33:32.026Z,102572.00
2023-05-02T07:38:33.642Z,102568.84
2023-05-02T07:43:35.181Z,102571.00
2023-05-02T07:48:37.212Z,102585.63
2023-05-02T07:53:38.809Z,102577.69
2023-05-02T07:58:40.376Z,102571.59
2023-05-02T08:03:42.009Z,102592.94
2023-05-02T08:08:43.792Z,102585.75
2023-05-02T08:13:45.268Z,102600.66
2023-05-02T08:18:47.144Z,102604.72
2023-05-02T08:23:48.730Z,102606.72
2023-05-02T08:28:53.181Z,102608.22
2023-05-02T08:33:54.697Z,102626.44
2023-05-02T08:38:56.233Z,102625.06
2023-05-02T08:43:59.236Z,102636.25
2023-05-02T08:49:02.408Z,102631.63
2023-05-02T08:54:04.353Z,102642.56
2023-05-02T08:59:06.795Z,102653.84
2023-05-02T09:04:08.493Z,102648.16
2023-05-02T09:09:10.192Z,102660.44
2023-05-02T09:14:16.596Z,102672.56
2023-05-02T09:19:28.180Z,102658.06
2023-05-02T09:24:29.889Z,102657.06
2023-05-02T09:29:38.593Z,102666.25
2023-05-02T09:34:40.216Z,102673.59
2023-05-02T09:39:41.726Z,102688.13
2023-05-02T09:44:43.847Z,102683.25
2023-05-02T09:49:46.623Z,102702.88
2023-05-02T09:54:50.652Z,102700.16
2023-05-02T09:59:57.121Z,102703.09
2023-05-02T10:05:01.706Z,102701.13
2023-05-02T10:10:03.774Z,102706.88
2023-05-02T10:15:09.572Z,102704.00
2023-05-02T10:20:18.867Z,102699.84
2023-05-02T10:25:20.943Z,102718.34
2023-05-02T10:30:23.690Z,102716.78
2023-05-02T10:35:26.541Z,102724.53
2023-05-02T10:40:28.450Z,102733.22
2023-05-02T10:45:34.867Z,102727.16
2023-05-02T10:50:43.713Z,102726.78
2023-05-02T10:55:45.332Z,102725.81
2023-05-02T11:00:46.863Z,102725.91
2023-05-02T11:06:07.818Z,102737.91
2023-05-02T11:11:44.833Z,102737.13
2023-05-02T11:17:02.276Z,102742.44
2023-05-02T11:22:23.835Z,102747.75
2023-05-02T11:27:31.970Z,102751.63
2023-05-02T11:32:46.244Z,102751.69
2023-05-02T11:38:05.181Z,102758.78
2023-05-02T11:43:18.423Z,102750.00
2023-05-02T11:48:22.640Z,102757.72
2023-05-02T11:53:31.611Z,102775.25
2023-05-02T11:58:33.558Z,102768.03
2023-05-02T12:03:35.972Z,102780.47
2023-05-02T12:08:38.492Z,102790.44
2023-05-02T12:13:48.236Z,102799.50
2023-05-02T12:18:50.019Z,102796.50
2023-05-02T12:23:51.668Z,102809.22
2023-05-02T12:28:58.958Z,102800.25
2023-05-02T12:34:01.331Z,102805.63
2023-05-02T12:39:04.507Z,102818.53
2023-05-02T12:44:07.258Z,102810.44
2023-05-02T12:49:11.814Z,102812.38
2023-05-02T12:54:20.922Z,102831.97
2023-05-02T12:59:26.580Z,102826.94
2023-05-02T13:04:42.191Z,102840.63
2023-05-02T13:09:43.822Z,102823.59
2023-05-02T13:14:45.434Z,102817.09
2023-05-02T13:19:57.749Z,102837.88
2023-05-02T13:25:03.026Z,102825.84
2023-05-02T13:30:09.063Z,102836.28
2023-05-02T13:35:14.040Z,102829.34
2023-05-02T13:40:15.766Z,102832.88
2023-05-02T13:45:17.900Z,102835.44
2023-05-02T13:50:19.396Z,102835.56
2023-05-02T13:55:21.165Z,102838.03
2023-05-02T14:00:22.828Z,102841.13
2023-05-02T14:05:24.346Z,102849.44
2023-05-02T14:10:25.995Z,102853.56
2023-05-02T14:15:27.832Z,102849.22
2023-05-02T14:20:29.519Z,102848.84
2023-05-02T14:25:31.095Z,102854.56
2023-05-02T14:30:32.591Z,102857.38
2023-05-02T14:35:34.064Z,102852.22
2023-05-02T14:40:35.655Z,102861.16
2023-05-02T14:45:37.233Z,102866.16
2023-05-02T14:50:39.707Z,102866.75
2023-05-02T14:55:41.280Z,102865.09
2023-05-02T15:00:43.072Z,102860.63
2023-05-02T15:05:44.698Z,102850.06
2023-05-02T15:10:46.225Z,102852.31
2023-05-02T15:15:47.891Z,102851.09
2023-05-02T15:20:49.423Z,102842.91
2023-05-02T15:25:51.183Z,102844.22
2023-05-02T15:30:52.709Z,102848.50
2023-05-02T15:35:58.492Z,102854.63
2023-05-02T15:41:00.750Z,102860.38
2023-05-02T15:46:02.275Z,102869.03
2023-05-02T15:51:05.419Z,102865.06
2023-05-02T15:56:11.181Z,102863.94
2023-05-02T16:01:12.817Z,102874.22
2023-05-02T16:06:16.083Z,102888.34
2023-05-02T16:11:17.661Z,102879.50
2023-05-02T16:16:19.234Z,102878.72
2023-05-02T16:21:21.853Z,102873.81
2023-05-02T16:26:23.328Z,102881.66
2023-05-02T16:31:25.655Z,102875.34
2023-05-02T16:36:29.049Z,102881.88
2023-05-02T16:41:30.830Z,102868.75
2023-05-02T16:46:32.806Z,102881.34
2023-05-02T16:51:34.448Z,102872.72
2023-05-02T16:56:36.052Z,102883.28
2023-05-02T17:01:38.010Z,102876.84
2023-05-02T17:06:39.592Z,102868.66
2023-05-02T17:11:41.345Z,102879.13
2023-05-02T17:16:42.904Z,102901.28
2023-05-02T17:21:44.412Z,102899.31
2023-05-02T17:26:46.059Z,102890.69
2023-05-02T17:31:47.640Z,102893.50
2023-05-02T17:36:49.092Z,102899.84
2023-05-02T17:41:50.684Z,102897.22
2023-05-02T17:46:52.909Z,102888.75
2023-05-02T17:51:54.494Z,102888.56
2023-05-02T17:56:56.034Z,102890.06
2023-05-02T18:01:57.823Z,102886.97
2023-05-02T18:06:59.404Z,102882.59
2023-05-02T18:12:04.266Z,102894.19
2023-05-02T18:17:08.408Z,102903.03
2023-05-02T18:22:11.270Z,102908.59
2023-05-02T18:27:12.844Z,102907.50
2023-05-02T18:32:14.845Z,102912.84
2023-05-02T18:37:16.318Z,102909.25
2023-05-02T18:42:17.830Z,102894.44
2023-05-02T18:47:19.716Z,102899.78
2023-05-02T18:52:21.254Z,102886.81
2023-05-02T18:57:22.821Z,102909.38
2023-05-02T19:02:24.483Z,102919.16
2023-05-02T19:07:26.048Z,102914.22
2023-05-02T19:12:28.157Z,102918.13
2023-05-02T19:17:29.842Z,102926.06
2023-05-02T19:22:34.594Z,102926.47
2023-05-02T19:27:36.193Z,102931.25
2023-05-02T19:32:37.801Z,102927.31
2023-05-02T19:37:39.319Z,102927.53
2023-05-02T19:42:42.908Z,102938.81
2023-05-02T19:47:45.588Z,102935.19
2023-05-02T19:52:47.217Z,102946.06
2023-05-02T19:57:48.879Z,102946.25
2023-05-02T20:02:51.476Z,102943.66
2023-05-02T20:07:53.246Z,102951.38
2023-05-02T20:12:54.764Z,102964.56
2023-05-02T20:17:56.942Z,102971.16
2023-05-02T20:22:59.244Z,102970.34
2023-05-02T20:28:01.115Z,102970.91
2023-05-02T20:33:14.112Z,102978.63
2023-05-02T20:38:17.725Z,102972.78
2023-05-02T20:43:22.827Z,102976.94
2023-05-02T20:48:24.376Z,102979.09
2023-05-02T20:53:25.896Z,102978.41
2023-05-02T20:58:27.448Z,102980.81
2023-05-02T21:03:29.105Z,102982.56
2023-05-02T21:08:30.777Z,102971.88
2023-05-02T21:13:32.435Z,102962.81
2023-05-02T21:18:33.924Z,102975.25
2023-05-02T21:23:35.455Z,102963.94
2023-05-02T21:28:38.431Z,102967.00
2023-05-02T21:33:41.465Z,102958.28
2023-05-02T21:38:43.085Z,102966.69
2023-05-02T21:43:45.169Z,102964.94
2023-05-02T21:48:46.647Z,102971.00
2023-05-02T21:53:48.179Z,102964.91
2023-05-02T21:58:51.326Z,102962.69
2023-05-02T22:03:52.921Z,102965.38
2023-05-02T22:08:54.435Z,102948.97
2023-05-02T22:13:55.894Z,102949.41
2023-05-02T22:18:58.114Z,102949.31
2023-05-02T22:23:59.733Z,102952.84
2023-05-02T22:29:01.242Z,102951.50
2023-05-02T22:34:02.802Z,102952.19
2023-05-02T22:39:08.892Z,102954.31
2023-05-02T22:44:11.367Z,102959.38
2023-05-02T22:49:13.058Z,102970.75
2023-05-02T22:54:15.260Z,102973.81
2023-05-02T22:59:17.536Z,102976.75
2023-05-02T23:04:19.051Z,102968.19
2023-05-02T23:09:20.819Z,102967.69
2023-05-02T23:14:22.928Z,102965.94
2023-05-02T23:19:25.390Z,102970.75
2023-05-02T23:24:28.052Z,102979.69
2023-05-02T23:29:29.582Z,102980.34
2023-05-02T23:34:31.427Z,102979.63
2023-05-02T23:39:33.463Z,102977.38
2023-05-02T23:44:35.074Z,102986.94
2023-05-02T23:49:37.109Z,102989.41
2023-05-02T23:54:38.647Z,102991.78
2023-05-02T23:59:40.265Z,103001.16
